Terminal Aerodrome Forecast
Issued by NWS Melbourne, FL

Home | Current Version | Previous Version | Text Only | Print | Product List | Glossary On
Versions: 1 2 3 4 5 6 7 8 9 10 11 12 13 14 15 16 17 18 19 20
000
FTUS42 KMLB 252300
TAFVRB
TAF
KVRB 252331Z 2600/2624 17012KT P6SM VCTS FEW030CB BKN120 OVC200
     FM260200 17010KT P6SM VCSH BKN020
     FM261100 23012KT P6SM VCSH BKN020=

USA.gov is the U.S. government's official web portal to all federal, state and local government web resources and services.